sensor_id;sensor_type;location;lat;lon;timestamp;temperature;humidity
37642;DHT22;23486;51.956;5.888;2023-05-08T00:01:59;15.50;99.90
37642;DHT22;23486;51.956;5.888;2023-05-08T00:04:25;15.50;99.90
37642;DHT22;23486;51.956;5.888;2023-05-08T00:06:50;15.50;99.90
37642;DHT22;23486;51.956;5.888;2023-05-08T00:09:17;15.40;99.90
37642;DHT22;23486;51.956;5.888;2023-05-08T00:11:43;15.40;99.90
37642;DHT22;23486;51.956;5.888;2023-05-08T00:14:09;15.40;99.90
37642;DHT22;23486;51.956;5.888;2023-05-08T00:16:34;15.40;99.90
37642;DHT22;23486;51.956;5.888;2023-05-08T00:19:00;15.30;99.90
37642;DHT22;23486;51.956;5.888;2023-05-08T00:21:26;15.30;99.90
37642;DHT22;23486;51.956;5.888;2023-05-08T00:23:51;15.30;99.90
37642;DHT22;23486;51.956;5.888;2023-05-08T00:26:17;15.30;99.90
37642;DHT22;23486;51.956;5.888;2023-05-08T00:28:43;15.30;99.90
37642;DHT22;23486;51.956;5.888;2023-05-08T00:31:09;15.20;99.90
37642;DHT22;23486;51.956;5.888;2023-05-08T00:33:34;15.20;99.90
37642;DHT22;23486;51.956;5.888;2023-05-08T00:36:01;15.20;99.90
37642;DHT22;23486;51.956;5.888;2023-05-08T00:38:32;15.20;99.90
37642;DHT22;23486;51.956;5.888;2023-05-08T00:40:58;15.10;99.90
37642;DHT22;23486;51.956;5.888;2023-05-08T00:43:24;15.10;99.90
37642;DHT22;23486;51.956;5.888;2023-05-08T00:45:53;15.10;99.90
37642;DHT22;23486;51.956;5.888;2023-05-08T00:48:20;15.00;99.90
37642;DHT22;23486;51.956;5.888;2023-05-08T00:50:49;15.00;99.90
37642;DHT22;23486;51.956;5.888;2023-05-08T00:53:15;15.00;99.90
37642;DHT22;23486;51.956;5.888;2023-05-08T00:55:41;14.90;99.90
37642;DHT22;23486;51.956;5.888;2023-05-08T00:58:07;14.90;99.90
37642;DHT22;23486;51.956;5.888;2023-05-08T01:00:33;14.80;99.90
37642;DHT22;23486;51.956;5.888;2023-05-08T01:03:00;14.80;99.90
37642;DHT22;23486;51.956;5.888;2023-05-08T01:05:28;14.70;99.90
37642;DHT22;23486;51.956;5.888;2023-05-08T01:07:55;14.60;99.90
37642;DHT22;23486;51.956;5.888;2023-05-08T01:10:20;14.60;99.90
37642;DHT22;23486;51.956;5.888;2023-05-08T01:12:58;14.60;99.90
37642;DHT22;23486;51.956;5.888;2023-05-08T01:15:36;14.50;99.90
37642;DHT22;23486;51.956;5.888;2023-05-08T01:18:32;14.50;99.90
37642;DHT22;23486;51.956;5.888;2023-05-08T01:21:20;14.50;99.90
37642;DHT22;23486;51.956;5.888;2023-05-08T01:24:09;14.40;99.90
37642;DHT22;23486;51.956;5.888;2023-05-08T01:32:36;14.40;99.90
37642;DHT22;23486;51.956;5.888;2023-05-08T01:37:41;14.30;99.90
37642;DHT22;23486;51.956;5.888;2023-05-08T01:40:25;14.30;99.90
37642;DHT22;23486;51.956;5.888;2023-05-08T01:43:05;14.30;99.90
37642;DHT22;23486;51.956;5.888;2023-05-08T01:45:38;14.20;99.90
37642;DHT22;23486;51.956;5.888;2023-05-08T01:48:12;14.20;99.90
37642;DHT22;23486;51.956;5.888;2023-05-08T01:50:46;14.20;99.90
37642;DHT22;23486;51.956;5.888;2023-05-08T01:53:29;14.10;99.90
37642;DHT22;23486;51.956;5.888;2023-05-08T01:56:02;14.10;99.90
37642;DHT22;23486;51.956;5.888;2023-05-08T01:58:30;14.10;99.90
37642;DHT22;23486;51.956;5.888;2023-05-08T02:00:58;14.10;99.90
37642;DHT22;23486;51.956;5.888;2023-05-08T02:03:26;14.00;99.90
37642;DHT22;23486;51.956;5.888;2023-05-08T02:05:56;14.00;99.90
37642;DHT22;23486;51.956;5.888;2023-05-08T02:08:23;13.90;99.90
37642;DHT22;23486;51.956;5.888;2023-05-08T02:10:50;13.90;99.90
37642;DHT22;23486;51.956;5.888;2023-05-08T02:13:18;13.90;99.90
37642;DHT22;23486;51.956;5.888;2023-05-08T02:15:47;13.80;99.90
37642;DHT22;23486;51.956;5.888;2023-05-08T02:18:14;13.80;99.90
37642;DHT22;23486;51.956;5.888;2023-05-08T02:20:43;13.80;99.90
37642;DHT22;23486;51.956;5.888;2023-05-08T02:23:09;13.70;99.90
37642;DHT22;23486;51.956;5.888;2023-05-08T02:25:35;13.70;99.90
37642;DHT22;23486;51.956;5.888;2023-05-08T02:28:02;13.70;99.90
37642;DHT22;23486;51.956;5.888;2023-05-08T02:30:30;13.70;99.90
37642;DHT22;23486;51.956;5.888;2023-05-08T02:32:57;13.60;99.90
37642;DHT22;23486;51.956;5.888;2023-05-08T02:35:23;13.60;99.90
37642;DHT22;23486;51.956;5.888;2023-05-08T02:37:52;13.60;99.90
37642;DHT22;23486;51.956;5.888;2023-05-08T02:40:19;13.70;99.90
37642;DHT22;23486;51.956;5.888;2023-05-08T02:42:46;13.60;99.90
37642;DHT22;23486;51.956;5.888;2023-05-08T02:45:12;13.50;99.90
37642;DHT22;23486;51.956;5.888;2023-05-08T02:47:52;13.50;99.90
37642;DHT22;23486;51.956;5.888;2023-05-08T02:50:31;13.50;99.90
37642;DHT22;23486;51.956;5.888;2023-05-08T02:53:04;13.40;99.90
37642;DHT22;23486;51.956;5.888;2023-05-08T02:55:44;13.40;99.90
37642;DHT22;23486;51.956;5.888;2023-05-08T02:58:32;13.40;99.90
37642;DHT22;23486;51.956;5.888;2023-05-08T03:01:06;13.40;99.90
37642;DHT22;23486;51.956;5.888;2023-05-08T03:03:38;13.40;99.90
37642;DHT22;23486;51.956;5.888;2023-05-08T03:06:11;13.40;99.90
37642;DHT22;23486;51.956;5.888;2023-05-08T03:08:39;13.40;99.90
37642;DHT22;23486;51.956;5.888;2023-05-08T03:11:09;13.30;99.90
37642;DHT22;23486;51.956;5.888;2023-05-08T03:13:38;13.30;99.90
37642;DHT22;23486;51.956;5.888;2023-05-08T03:16:08;13.30;99.90
37642;DHT22;23486;51.956;5.888;2023-05-08T03:18:41;13.30;99.90
37642;DHT22;23486;51.956;5.888;2023-05-08T03:21:10;13.30;99.90
37642;DHT22;23486;51.956;5.888;2023-05-08T03:23:38;13.20;99.90
37642;DHT22;23486;51.956;5.888;2023-05-08T03:26:05;13.20;99.90
37642;DHT22;23486;51.956;5.888;2023-05-08T03:28:34;13.20;99.90
37642;DHT22;23486;51.956;5.888;2023-05-08T03:31:00;13.10;99.90
37642;DHT22;23486;51.956;5.888;2023-05-08T03:33:28;13.10;99.90
37642;DHT22;23486;51.956;5.888;2023-05-08T03:35:54;13.10;99.90
37642;DHT22;23486;51.956;5.888;2023-05-08T03:38:20;13.10;99.90
37642;DHT22;23486;51.956;5.888;2023-05-08T03:40:47;13.10;99.90
37642;DHT22;23486;51.956;5.888;2023-05-08T03:43:14;13.10;99.90
37642;DHT22;23486;51.956;5.888;2023-05-08T03:45:40;13.10;99.90
37642;DHT22;23486;51.956;5.888;2023-05-08T03:48:07;13.10;99.90
37642;DHT22;23486;51.956;5.888;2023-05-08T03:50:35;13.10;99.90
37642;DHT22;23486;51.956;5.888;2023-05-08T03:53:01;13.10;99.90
37642;DHT22;23486;51.956;5.888;2023-05-08T03:55:26;13.10;99.90
37642;DHT22;23486;51.956;5.888;2023-05-08T03:58:04;13.10;99.90
37642;DHT22;23486;51.956;5.888;2023-05-08T04:00:46;13.20;99.90
37642;DHT22;23486;51.956;5.888;2023-05-08T04:03:25;13.20;99.90
37642;DHT22;23486;51.956;5.888;2023-05-08T04:06:02;13.20;99.90
37642;DHT22;23486;51.956;5.888;2023-05-08T04:08:37;13.20;99.90
37642;DHT22;23486;51.956;5.888;2023-05-08T04:11:28;13.10;99.90
37642;DHT22;23486;51.956;5.888;2023-05-08T04:14:00;13.20;99.90
37642;DHT22;23486;51.956;5.888;2023-05-08T04:16:28;13.20;99.90
37642;DHT22;23486;51.956;5.888;2023-05-08T04:19:01;13.20;99.90
37642;DHT22;23486;51.956;5.888;2023-05-08T04:21:28;13.20;99.90
37642;DHT22;23486;51.956;5.888;2023-05-08T04:23:58;13.20;99.90
37642;DHT22;23486;51.956;5.888;2023-05-08T04:26:25;13.20;99.90
37642;DHT22;23486;51.956;5.888;2023-05-08T04:28:51;13.20;99.90
37642;DHT22;23486;51.956;5.888;2023-05-08T04:31:18;13.20;99.90
37642;DHT22;23486;51.956;5.888;2023-05-08T04:33:44;13.20;99.90
37642;DHT22;23486;51.956;5.888;2023-05-08T04:36:12;13.20;99.90
37642;DHT22;23486;51.956;5.888;2023-05-08T04:38:38;13.20;99.90
37642;DHT22;23486;51.956;5.888;2023-05-08T04:41:04;13.20;99.90
37642;DHT22;23486;51.956;5.888;2023-05-08T04:43:29;13.20;99.90
37642;DHT22;23486;51.956;5.888;2023-05-08T04:45:55;13.20;99.90
37642;DHT22;23486;51.956;5.888;2023-05-08T04:48:20;13.30;99.90
37642;DHT22;23486;51.956;5.888;2023-05-08T04:50:46;13.30;99.90
37642;DHT22;23486;51.956;5.888;2023-05-08T04:53:12;13.30;99.90
37642;DHT22;23486;51.956;5.888;2023-05-08T04:55:38;13.30;99.90
37642;DHT22;23486;51.956;5.888;2023-05-08T04:58:03;13.30;99.90
37642;DHT22;23486;51.956;5.888;2023-05-08T05:00:29;13.30;99.90
37642;DHT22;23486;51.956;5.888;2023-05-08T05:02:54;13.30;99.90
37642;DHT22;23486;51.956;5.888;2023-05-08T05:05:20;13.30;99.90
37642;DHT22;23486;51.956;5.888;2023-05-08T05:07:46;13.30;99.90
37642;DHT22;23486;51.956;5.888;2023-05-08T05:10:11;13.30;99.90
37642;DHT22;23486;51.956;5.888;2023-05-08T05:12:37;13.30;99.90
37642;DHT22;23486;51.956;5.888;2023-05-08T05:15:03;13.30;99.90
37642;DHT22;23486;51.956;5.888;2023-05-08T05:17:32;13.30;99.90
37642;DHT22;23486;51.956;5.888;2023-05-08T05:19:57;13.40;99.90
37642;DHT22;23486;51.956;5.888;2023-05-08T05:22:24;13.40;99.90
37642;DHT22;23486;51.956;5.888;2023-05-08T05:24:49;13.50;99.90
37642;DHT22;23486;51.956;5.888;2023-05-08T05:27:16;13.50;99.90
37642;DHT22;23486;51.956;5.888;2023-05-08T05:29:42;13.50;99.90
37642;DHT22;23486;51.956;5.888;2023-05-08T05:32:07;13.50;99.90
37642;DHT22;23486;51.956;5.888;2023-05-08T05:34:34;13.60;99.90
37642;DHT22;23486;51.956;5.888;2023-05-08T05:37:00;13.60;99.90
37642;DHT22;23486;51.956;5.888;2023-05-08T05:39:26;13.60;99.90
37642;DHT22;23486;51.956;5.888;2023-05-08T05:41:51;13.60;99.90
37642;DHT22;23486;51.956;5.888;2023-05-08T05:44:17;13.70;99.90
37642;DHT22;23486;51.956;5.888;2023-05-08T05:46:43;13.80;99.90
37642;DHT22;23486;51.956;5.888;2023-05-08T05:49:08;13.80;99.90
37642;DHT22;23486;51.956;5.888;2023-05-08T05:51:34;13.90;99.90
37642;DHT22;23486;51.956;5.888;2023-05-08T05:53:59;13.90;99.90
37642;DHT22;23486;51.956;5.888;2023-05-08T05:56:25;13.90;99.90
37642;DHT22;23486;51.956;5.888;2023-05-08T05:58:50;14.00;99.90
37642;DHT22;23486;51.956;5.888;2023-05-08T06:01:16;14.10;99.90
37642;DHT22;23486;51.956;5.888;2023-05-08T06:03:42;14.10;99.90
37642;DHT22;23486;51.956;5.888;2023-05-08T06:06:07;14.10;99.90
37642;DHT22;23486;51.956;5.888;2023-05-08T06:08:33;14.20;99.90
37642;DHT22;23486;51.956;5.888;2023-05-08T06:10:58;14.20;99.90
37642;DHT22;23486;51.956;5.888;2023-05-08T06:13:24;14.30;99.90
37642;DHT22;23486;51.956;5.888;2023-05-08T06:15:50;14.40;99.90
37642;DHT22;23486;51.956;5.888;2023-05-08T06:18:15;14.50;99.90
37642;DHT22;23486;51.956;5.888;2023-05-08T06:20:41;14.50;99.90
37642;DHT22;23486;51.956;5.888;2023-05-08T06:23:07;14.50;99.90
37642;DHT22;23486;51.956;5.888;2023-05-08T06:25:33;14.50;99.90
37642;DHT22;23486;51.956;5.888;2023-05-08T06:27:58;14.60;99.90
37642;DHT22;23486;51.956;5.888;2023-05-08T06:30:24;14.60;99.90
37642;DHT22;23486;51.956;5.888;2023-05-08T06:32:50;14.60;99.90
37642;DHT22;23486;51.956;5.888;2023-05-08T06:35:15;14.60;99.90
37642;DHT22;23486;51.956;5.888;2023-05-08T06:37:45;14.70;99.90
37642;DHT22;23486;51.956;5.888;2023-05-08T06:40:11;14.80;99.90
37642;DHT22;23486;51.956;5.888;2023-05-08T06:42:37;14.80;99.90
37642;DHT22;23486;51.956;5.888;2023-05-08T06:45:03;14.80;99.90
37642;DHT22;23486;51.956;5.888;2023-05-08T06:47:29;14.90;99.90
37642;DHT22;23486;51.956;5.888;2023-05-08T06:49:54;14.90;99.90
37642;DHT22;23486;51.956;5.888;2023-05-08T06:52:20;14.90;99.90
37642;DHT22;23486;51.956;5.888;2023-05-08T06:54:46;15.00;99.90
37642;DHT22;23486;51.956;5.888;2023-05-08T06:57:11;15.00;99.90
37642;DHT22;23486;51.956;5.888;2023-05-08T06:59:39;14.90;99.90
37642;DHT22;23486;51.956;5.888;2023-05-08T07:02:05;14.90;99.90
37642;DHT22;23486;51.956;5.888;2023-05-08T07:04:30;15.10;99.90
37642;DHT22;23486;51.956;5.888;2023-05-08T07:06:56;15.10;99.90
37642;DHT22;23486;51.956;5.888;2023-05-08T07:09:21;15.20;99.90
37642;DHT22;23486;51.956;5.888;2023-05-08T07:11:47;15.30;99.90
37642;DHT22;23486;51.956;5.888;2023-05-08T07:14:13;15.30;99.90
37642;DHT22;23486;51.956;5.888;2023-05-08T07:16:38;15.40;99.90
37642;DHT22;23486;51.956;5.888;2023-05-08T07:19:04;15.50;99.90
37642;DHT22;23486;51.956;5.888;2023-05-08T07:21:29;15.60;99.90
37642;DHT22;23486;51.956;5.888;2023-05-08T07:23:55;15.90;99.90
37642;DHT22;23486;51.956;5.888;2023-05-08T07:26:21;16.00;99.90
37642;DHT22;23486;51.956;5.888;2023-05-08T07:28:47;16.30;99.90
37642;DHT22;23486;51.956;5.888;2023-05-08T07:31:13;16.50;99.90
37642;DHT22;23486;51.956;5.888;2023-05-08T07:33:38;16.60;99.90
37642;DHT22;23486;51.956;5.888;2023-05-08T07:36:05;16.70;99.90
37642;DHT22;23486;51.956;5.888;2023-05-08T07:38:30;16.90;99.90
37642;DHT22;23486;51.956;5.888;2023-05-08T07:40:56;17.00;99.90
37642;DHT22;23486;51.956;5.888;2023-05-08T07:43:23;17.00;99.90
37642;DHT22;23486;51.956;5.888;2023-05-08T07:45:49;17.10;99.90
37642;DHT22;23486;51.956;5.888;2023-05-08T07:48:15;17.10;99.90
37642;DHT22;23486;51.956;5.888;2023-05-08T07:50:40;17.20;99.90
37642;DHT22;23486;51.956;5.888;2023-05-08T07:53:06;17.30;99.90
37642;DHT22;23486;51.956;5.888;2023-05-08T07:55:32;17.40;99.90
37642;DHT22;23486;51.956;5.888;2023-05-08T07:57:57;17.50;99.90
37642;DHT22;23486;51.956;5.888;2023-05-08T08:00:23;17.50;99.90
37642;DHT22;23486;51.956;5.888;2023-05-08T08:02:51;17.60;99.90
37642;DHT22;23486;51.956;5.888;2023-05-08T08:05:17;17.60;99.90
37642;DHT22;23486;51.956;5.888;2023-05-08T08:07:43;17.70;99.90
37642;DHT22;23486;51.956;5.888;2023-05-08T08:10:09;17.70;99.90
37642;DHT22;23486;51.956;5.888;2023-05-08T08:12:34;17.80;99.90
37642;DHT22;23486;51.956;5.888;2023-05-08T08:15:00;17.90;99.90
37642;DHT22;23486;51.956;5.888;2023-05-08T08:17:26;17.90;99.90
37642;DHT22;23486;51.956;5.888;2023-05-08T08:19:51;18.00;99.90
37642;DHT22;23486;51.956;5.888;2023-05-08T08:22:17;18.10;99.90
37642;DHT22;23486;51.956;5.888;2023-05-08T08:24:43;18.10;99.90
37642;DHT22;23486;51.956;5.888;2023-05-08T08:27:09;18.10;99.90
37642;DHT22;23486;51.956;5.888;2023-05-08T08:29:34;18.20;99.90
37642;DHT22;23486;51.956;5.888;2023-05-08T08:32:00;18.20;99.90
37642;DHT22;23486;51.956;5.888;2023-05-08T08:34:27;18.20;99.90
37642;DHT22;23486;51.956;5.888;2023-05-08T08:36:53;18.20;99.90
37642;DHT22;23486;51.956;5.888;2023-05-08T08:39:19;18.30;99.90
37642;DHT22;23486;51.956;5.888;2023-05-08T08:41:45;18.30;99.90
37642;DHT22;23486;51.956;5.888;2023-05-08T08:44:10;18.40;99.90
37642;DHT22;23486;51.956;5.888;2023-05-08T08:46:39;18.50;99.90
37642;DHT22;23486;51.956;5.888;2023-05-08T08:49:08;18.50;99.90
37642;DHT22;23486;51.956;5.888;2023-05-08T08:51:52;18.60;99.90
37642;DHT22;23486;51.956;5.888;2023-05-08T08:54:22;18.70;99.90
37642;DHT22;23486;51.956;5.888;2023-05-08T08:56:49;18.80;99.90
37642;DHT22;23486;51.956;5.888;2023-05-08T08:59:16;18.80;99.90
37642;DHT22;23486;51.956;5.888;2023-05-08T09:01:44;18.80;99.90
37642;DHT22;23486;51.956;5.888;2023-05-08T09:04:12;18.70;99.90
37642;DHT22;23486;51.956;5.888;2023-05-08T09:06:38;18.70;99.90
37642;DHT22;23486;51.956;5.888;2023-05-08T09:09:05;18.60;99.90
37642;DHT22;23486;51.956;5.888;2023-05-08T09:11:31;18.50;99.90
37642;DHT22;23486;51.956;5.888;2023-05-08T09:13:58;18.50;99.90
37642;DHT22;23486;51.956;5.888;2023-05-08T09:16:24;18.50;99.90
37642;DHT22;23486;51.956;5.888;2023-05-08T09:18:50;18.50;99.90
37642;DHT22;23486;51.956;5.888;2023-05-08T09:21:16;18.60;99.90
37642;DHT22;23486;51.956;5.888;2023-05-08T09:23:55;18.70;99.90
37642;DHT22;23486;51.956;5.888;2023-05-08T09:26:31;18.80;99.90
37642;DHT22;23486;51.956;5.888;2023-05-08T09:29:17;18.80;99.90
37642;DHT22;23486;51.956;5.888;2023-05-08T09:31:49;18.70;99.90
37642;DHT22;23486;51.956;5.888;2023-05-08T09:34:30;18.70;99.90
37642;DHT22;23486;51.956;5.888;2023-05-08T09:37:10;18.80;99.90
37642;DHT22;23486;51.956;5.888;2023-05-08T09:39:36;18.80;99.90
37642;DHT22;23486;51.956;5.888;2023-05-08T09:42:05;18.90;99.90
37642;DHT22;23486;51.956;5.888;2023-05-08T09:44:52;19.00;99.90
37642;DHT22;23486;51.956;5.888;2023-05-08T09:47:22;18.90;99.90
37642;DHT22;23486;51.956;5.888;2023-05-08T09:50:08;18.90;99.90
37642;DHT22;23486;51.956;5.888;2023-05-08T09:52:35;19.00;99.90
37642;DHT22;23486;51.956;5.888;2023-05-08T09:57:30;19.30;99.90
37642;DHT22;23486;51.956;5.888;2023-05-08T10:00:12;19.50;99.90
37642;DHT22;23486;51.956;5.888;2023-05-08T10:02:40;19.60;99.90
37642;DHT22;23486;51.956;5.888;2023-05-08T10:05:30;19.80;99.90
37642;DHT22;23486;51.956;5.888;2023-05-08T10:08:18;20.00;99.90
37642;DHT22;23486;51.956;5.888;2023-05-08T10:10:44;20.20;99.90
37642;DHT22;23486;51.956;5.888;2023-05-08T10:13:10;20.30;99.90
37642;DHT22;23486;51.956;5.888;2023-05-08T10:15:37;20.40;99.90
37642;DHT22;23486;51.956;5.888;2023-05-08T10:18:05;20.60;99.90
37642;DHT22;23486;51.956;5.888;2023-05-08T10:20:32;20.80;99.90
37642;DHT22;23486;51.956;5.888;2023-05-08T10:22:58;21.00;99.90
37642;DHT22;23486;51.956;5.888;2023-05-08T10:25:25;21.10;99.90
37642;DHT22;23486;51.956;5.888;2023-05-08T10:28:05;21.20;99.90
37642;DHT22;23486;51.956;5.888;2023-05-08T10:30:32;21.40;99.90
37642;DHT22;23486;51.956;5.888;2023-05-08T10:33:02;21.30;99.90
37642;DHT22;23486;51.956;5.888;2023-05-08T10:35:32;21.30;99.90
37642;DHT22;23486;51.956;5.888;2023-05-08T10:37:58;21.20;99.90
37642;DHT22;23486;51.956;5.888;2023-05-08T10:40:24;21.00;99.90
37642;DHT22;23486;51.956;5.888;2023-05-08T10:42:50;20.80;99.90
37642;DHT22;23486;51.956;5.888;2023-05-08T10:45:16;20.60;99.90
37642;DHT22;23486;51.956;5.888;2023-05-08T10:56:47;19.70;99.90
37642;DHT22;23486;51.956;5.888;2023-05-08T10:59:17;19.40;99.90
37642;DHT22;23486;51.956;5.888;2023-05-08T11:01:48;19.30;99.90
37642;DHT22;23486;51.956;5.888;2023-05-08T11:04:22;19.10;99.90
37642;DHT22;23486;51.956;5.888;2023-05-08T11:06:48;19.00;99.90
37642;DHT22;23486;51.956;5.888;2023-05-08T11:09:27;18.90;99.90
37642;DHT22;23486;51.956;5.888;2023-05-08T11:12:18;18.90;99.90
37642;DHT22;23486;51.956;5.888;2023-05-08T11:15:13;18.80;99.90
37642;DHT22;23486;51.956;5.888;2023-05-08T11:17:38;18.90;99.90
37642;DHT22;23486;51.956;5.888;2023-05-08T11:20:05;18.90;99.90
37642;DHT22;23486;51.956;5.888;2023-05-08T11:22:34;18.90;99.90
37642;DHT22;23486;51.956;5.888;2023-05-08T11:25:06;18.90;99.90
37642;DHT22;23486;51.956;5.888;2023-05-08T11:27:37;18.90;99.90
37642;DHT22;23486;51.956;5.888;2023-05-08T11:30:25;19.10;99.90
37642;DHT22;23486;51.956;5.888;2023-05-08T11:40:59;19.40;99.90
37642;DHT22;23486;51.956;5.888;2023-05-08T11:46:01;19.70;99.90
37642;DHT22;23486;51.956;5.888;2023-05-08T11:48:31;19.90;99.90
37642;DHT22;23486;51.956;5.888;2023-05-08T11:50:58;20.00;99.90
37642;DHT22;23486;51.956;5.888;2023-05-08T11:53:24;20.10;99.90
37642;DHT22;23486;51.956;5.888;2023-05-08T11:55:57;20.30;99.90
37642;DHT22;23486;51.956;5.888;2023-05-08T11:58:26;20.40;99.90
37642;DHT22;23486;51.956;5.888;2023-05-08T12:00:51;20.60;99.90
37642;DHT22;23486;51.956;5.888;2023-05-08T12:03:23;20.80;99.90
37642;DHT22;23486;51.956;5.888;2023-05-08T12:05:55;20.90;99.90
37642;DHT22;23486;51.956;5.888;2023-05-08T12:08:21;21.00;99.90
37642;DHT22;23486;51.956;5.888;2023-05-08T12:10:51;21.10;99.90
37642;DHT22;23486;51.956;5.888;2023-05-08T12:13:25;21.00;99.90
37642;DHT22;23486;51.956;5.888;2023-05-08T12:15:53;21.00;99.90
37642;DHT22;23486;51.956;5.888;2023-05-08T12:18:19;21.10;99.90
37642;DHT22;23486;51.956;5.888;2023-05-08T12:20:50;21.20;99.90
37642;DHT22;23486;51.956;5.888;2023-05-08T12:23:16;21.20;99.90
37642;DHT22;23486;51.956;5.888;2023-05-08T12:25:41;21.10;99.90
37642;DHT22;23486;51.956;5.888;2023-05-08T12:28:08;21.00;99.90
37642;DHT22;23486;51.956;5.888;2023-05-08T12:30:34;20.90;99.90
37642;DHT22;23486;51.956;5.888;2023-05-08T12:33:01;20.80;99.90
37642;DHT22;23486;51.956;5.888;2023-05-08T12:35:27;20.80;99.90
37642;DHT22;23486;51.956;5.888;2023-05-08T12:37:53;20.80;99.90
37642;DHT22;23486;51.956;5.888;2023-05-08T12:40:27;20.70;99.90
37642;DHT22;23486;51.956;5.888;2023-05-08T12:42:53;20.70;99.90
37642;DHT22;23486;51.956;5.888;2023-05-08T12:45:26;20.60;99.90
37642;DHT22;23486;51.956;5.888;2023-05-08T12:47:57;20.60;99.90
37642;DHT22;23486;51.956;5.888;2023-05-08T12:50:23;20.60;99.90
37642;DHT22;23486;51.956;5.888;2023-05-08T12:53:01;20.60;99.90
37642;DHT22;23486;51.956;5.888;2023-05-08T12:55:31;20.70;99.90
37642;DHT22;23486;51.956;5.888;2023-05-08T13:00:24;21.00;99.90
37642;DHT22;23486;51.956;5.888;2023-05-08T13:02:51;21.10;99.90
37642;DHT22;23486;51.956;5.888;2023-05-08T13:05:22;21.30;99.90
37642;DHT22;23486;51.956;5.888;2023-05-08T13:07:48;21.50;99.90
37642;DHT22;23486;51.956;5.888;2023-05-08T13:10:14;21.50;99.90
37642;DHT22;23486;51.956;5.888;2023-05-08T13:12:40;21.50;99.90
37642;DHT22;23486;51.956;5.888;2023-05-08T13:15:06;21.30;99.90
37642;DHT22;23486;51.956;5.888;2023-05-08T13:17:32;21.20;99.90
37642;DHT22;23486;51.956;5.888;2023-05-08T13:19:58;21.10;99.90
37642;DHT22;23486;51.956;5.888;2023-05-08T13:22:23;21.20;99.90
37642;DHT22;23486;51.956;5.888;2023-05-08T13:24:51;21.10;99.90
37642;DHT22;23486;51.956;5.888;2023-05-08T13:27:17;21.20;99.90
37642;DHT22;23486;51.956;5.888;2023-05-08T13:29:42;21.20;99.90
37642;DHT22;23486;51.956;5.888;2023-05-08T13:32:08;21.30;99.90
37642;DHT22;23486;51.956;5.888;2023-05-08T13:34:34;21.40;99.90
37642;DHT22;23486;51.956;5.888;2023-05-08T13:36:59;21.40;99.90
37642;DHT22;23486;51.956;5.888;2023-05-08T13:39:25;21.50;99.90
37642;DHT22;23486;51.956;5.888;2023-05-08T13:41:50;21.60;99.90
37642;DHT22;23486;51.956;5.888;2023-05-08T13:44:16;21.70;99.90
37642;DHT22;23486;51.956;5.888;2023-05-08T13:46:42;21.70;99.90
37642;DHT22;23486;51.956;5.888;2023-05-08T13:49:07;21.80;99.90
37642;DHT22;23486;51.956;5.888;2023-05-08T13:51:33;22.10;99.90
37642;DHT22;23486;51.956;5.888;2023-05-08T13:53:59;22.30;99.90
37642;DHT22;23486;51.956;5.888;2023-05-08T13:56:25;22.50;99.90
37642;DHT22;23486;51.956;5.888;2023-05-08T13:58:51;22.50;99.90
37642;DHT22;23486;51.956;5.888;2023-05-08T14:01:18;22.60;99.90
37642;DHT22;23486;51.956;5.888;2023-05-08T14:03:44;22.70;99.90
37642;DHT22;23486;51.956;5.888;2023-05-08T14:06:09;22.70;99.90
37642;DHT22;23486;51.956;5.888;2023-05-08T14:08:35;22.80;99.90
37642;DHT22;23486;51.956;5.888;2023-05-08T14:11:00;22.80;99.90
37642;DHT22;23486;51.956;5.888;2023-05-08T14:13:27;22.90;99.90
37642;DHT22;23486;51.956;5.888;2023-05-08T14:15:53;23.00;99.90
37642;DHT22;23486;51.956;5.888;2023-05-08T14:18:19;23.00;99.90
37642;DHT22;23486;51.956;5.888;2023-05-08T14:20:44;23.10;99.90
37642;DHT22;23486;51.956;5.888;2023-05-08T14:23:10;23.20;99.90
37642;DHT22;23486;51.956;5.888;2023-05-08T14:25:35;23.20;99.90
37642;DHT22;23486;51.956;5.888;2023-05-08T14:28:01;23.10;99.90
37642;DHT22;23486;51.956;5.888;2023-05-08T14:30:26;23.00;99.90
37642;DHT22;23486;51.956;5.888;2023-05-08T14:32:52;22.90;99.90
37642;DHT22;23486;51.956;5.888;2023-05-08T14:35:20;22.70;99.90
37642;DHT22;23486;51.956;5.888;2023-05-08T14:37:46;22.60;99.90
37642;DHT22;23486;51.956;5.888;2023-05-08T14:40:12;22.60;99.90
37642;DHT22;23486;51.956;5.888;2023-05-08T14:42:37;22.40;99.90
37642;DHT22;23486;51.956;5.888;2023-05-08T14:45:03;22.30;99.90
37642;DHT22;23486;51.956;5.888;2023-05-08T14:47:29;22.30;99.90
37642;DHT22;23486;51.956;5.888;2023-05-08T14:49:57;22.30;99.90
37642;DHT22;23486;51.956;5.888;2023-05-08T14:52:23;22.20;99.90
37642;DHT22;23486;51.956;5.888;2023-05-08T14:54:48;22.20;99.90
37642;DHT22;23486;51.956;5.888;2023-05-08T14:57:18;22.20;99.90
37642;DHT22;23486;51.956;5.888;2023-05-08T14:59:46;22.30;99.90
37642;DHT22;23486;51.956;5.888;2023-05-08T15:02:11;22.30;99.90
37642;DHT22;23486;51.956;5.888;2023-05-08T15:04:37;22.30;99.90
37642;DHT22;23486;51.956;5.888;2023-05-08T15:07:06;22.30;99.90
37642;DHT22;23486;51.956;5.888;2023-05-08T15:09:31;22.20;99.90
37642;DHT22;23486;51.956;5.888;2023-05-08T15:11:57;22.10;99.90
37642;DHT22;23486;51.956;5.888;2023-05-08T15:14:22;22.00;99.90
37642;DHT22;23486;51.956;5.888;2023-05-08T15:16:48;22.00;99.90
37642;DHT22;23486;51.956;5.888;2023-05-08T15:19:14;21.90;99.90
37642;DHT22;23486;51.956;5.888;2023-05-08T15:21:41;21.80;99.90
37642;DHT22;23486;51.956;5.888;2023-05-08T15:24:07;21.60;99.90
37642;DHT22;23486;51.956;5.888;2023-05-08T15:26:33;21.50;99.90
37642;DHT22;23486;51.956;5.888;2023-05-08T15:28:58;21.40;99.90
37642;DHT22;23486;51.956;5.888;2023-05-08T15:31:24;21.30;99.90
37642;DHT22;23486;51.956;5.888;2023-05-08T15:33:49;21.40;99.90
37642;DHT22;23486;51.956;5.888;2023-05-08T15:36:15;21.40;99.90
37642;DHT22;23486;51.956;5.888;2023-05-08T15:38:41;21.40;99.90
37642;DHT22;23486;51.956;5.888;2023-05-08T15:41:07;21.40;99.90
37642;DHT22;23486;51.956;5.888;2023-05-08T15:43:36;21.50;99.90
37642;DHT22;23486;51.956;5.888;2023-05-08T15:46:02;21.60;99.90
37642;DHT22;23486;51.956;5.888;2023-05-08T15:48:28;21.50;99.90
37642;DHT22;23486;51.956;5.888;2023-05-08T15:50:53;21.60;99.90
37642;DHT22;23486;51.956;5.888;2023-05-08T15:53:19;21.60;99.90
37642;DHT22;23486;51.956;5.888;2023-05-08T15:55:45;21.70;99.90
37642;DHT22;23486;51.956;5.888;2023-05-08T15:58:10;21.80;99.90
37642;DHT22;23486;51.956;5.888;2023-05-08T16:00:36;21.90;99.90
37642;DHT22;23486;51.956;5.888;2023-05-08T16:03:02;22.10;99.90
37642;DHT22;23486;51.956;5.888;2023-05-08T16:05:27;22.10;99.90
37642;DHT22;23486;51.956;5.888;2023-05-08T16:07:53;22.10;99.90
37642;DHT22;23486;51.956;5.888;2023-05-08T16:10:20;22.00;99.90